sensor_id;sensor_type;location;lat;lon;timestamp;P1;durP1;ratioP1;P2;durP2;ratioP2
60336;SDS011;46978;50.288;28.624;2022-12-18T00:00:45;21.50;;;11.92;;
60336;SDS011;46978;50.288;28.624;2022-12-18T00:01:46;23.45;;;12.78;;
60336;SDS011;46978;50.288;28.624;2022-12-18T00:02:48;24.88;;;13.38;;
60336;SDS011;46978;50.288;28.624;2022-12-18T00:03:50;25.16;;;13.71;;
60336;SDS011;46978;50.288;28.624;2022-12-18T00:04:52;28.21;;;14.84;;
60336;SDS011;46978;50.288;28.624;2022-12-18T00:05:55;20.68;;;11.89;;
60336;SDS011;46978;50.288;28.624;2022-12-18T00:06:57;22.17;;;11.91;;
60336;SDS011;46978;50.288;28.624;2022-12-18T00:07:58;19.20;;;11.87;;
60336;SDS011;46978;50.288;28.624;2022-12-18T00:09:00;23.34;;;12.51;;
60336;SDS011;46978;50.288;28.624;2022-12-18T00:10:05;20.02;;;11.41;;
60336;SDS011;46978;50.288;28.624;2022-12-18T00:11:08;20.29;;;11.38;;
60336;SDS011;46978;50.288;28.624;2022-12-18T00:12:11;19.47;;;10.59;;
60336;SDS011;46978;50.288;28.624;2022-12-18T00:13:13;21.94;;;12.06;;
60336;SDS011;46978;50.288;28.624;2022-12-18T00:14:14;22.31;;;12.18;;
60336;SDS011;46978;50.288;28.624;2022-12-18T00:15:17;20.37;;;11.25;;
60336;SDS011;46978;50.288;28.624;2022-12-18T00:16:19;21.90;;;11.77;;
60336;SDS011;46978;50.288;28.624;2022-12-18T00:17:23;18.97;;;11.12;;
60336;SDS011;46978;50.288;28.624;2022-12-18T00:18:24;21.08;;;11.21;;
60336;SDS011;46978;50.288;28.624;2022-12-18T00:19:26;20.07;;;11.44;;
60336;SDS011;46978;50.288;28.624;2022-12-18T00:20:28;26.55;;;13.88;;
60336;SDS011;46978;50.288;28.624;2022-12-18T00:21:30;28.23;;;14.64;;
60336;SDS011;46978;50.288;28.624;2022-12-18T00:22:32;21.69;;;12.81;;
60336;SDS011;46978;50.288;28.624;2022-12-18T00:23:34;19.26;;;10.60;;
60336;SDS011;46978;50.288;28.624;2022-12-18T00:24:37;22.21;;;11.73;;
60336;SDS011;46978;50.288;28.624;2022-12-18T00:25:39;20.21;;;11.23;;
60336;SDS011;46978;50.288;28.624;2022-12-18T00:26:41;21.77;;;11.48;;
60336;SDS011;46978;50.288;28.624;2022-12-18T00:27:43;19.33;;;10.69;;
60336;SDS011;46978;50.288;28.624;2022-12-18T00:28:45;20.07;;;11.02;;
60336;SDS011;46978;50.288;28.624;2022-12-18T00:29:48;16.84;;;9.19;;
60336;SDS011;46978;50.288;28.624;2022-12-18T00:30:50;20.45;;;10.93;;
60336;SDS011;46978;50.288;28.624;2022-12-18T00:31:52;19.70;;;11.11;;
60336;SDS011;46978;50.288;28.624;2022-12-18T00:32:54;18.39;;;10.35;;
60336;SDS011;46978;50.288;28.624;2022-12-18T00:33:56;19.85;;;11.41;;
60336;SDS011;46978;50.288;28.624;2022-12-18T00:34:58;21.44;;;11.71;;
60336;SDS011;46978;50.288;28.624;2022-12-18T00:36:03;21.73;;;11.89;;
60336;SDS011;46978;50.288;28.624;2022-12-18T00:37:06;18.19;;;10.48;;
60336;SDS011;46978;50.288;28.624;2022-12-18T00:38:08;21.39;;;11.88;;
60336;SDS011;46978;50.288;28.624;2022-12-18T00:39:10;20.75;;;10.81;;
60336;SDS011;46978;50.288;28.624;2022-12-18T00:40:14;19.47;;;10.24;;
60336;SDS011;46978;50.288;28.624;2022-12-18T00:41:16;20.46;;;11.38;;
60336;SDS011;46978;50.288;28.624;2022-12-18T00:42:19;19.07;;;9.81;;
60336;SDS011;46978;50.288;28.624;2022-12-18T00:43:20;18.45;;;10.16;;
60336;SDS011;46978;50.288;28.624;2022-12-18T00:44:22;19.39;;;11.37;;
60336;SDS011;46978;50.288;28.624;2022-12-18T00:45:25;20.62;;;11.16;;
60336;SDS011;46978;50.288;28.624;2022-12-18T00:46:29;21.94;;;11.35;;
60336;SDS011;46978;50.288;28.624;2022-12-18T00:47:31;19.74;;;11.31;;
60336;SDS011;46978;50.288;28.624;2022-12-18T00:48:32;21.91;;;12.40;;
60336;SDS011;46978;50.288;28.624;2022-12-18T00:49:34;20.50;;;11.14;;
60336;SDS011;46978;50.288;28.624;2022-12-18T00:50:36;23.93;;;12.11;;
60336;SDS011;46978;50.288;28.624;2022-12-18T00:51:37;21.41;;;11.75;;
60336;SDS011;46978;50.288;28.624;2022-12-18T00:52:39;20.76;;;11.55;;
60336;SDS011;46978;50.288;28.624;2022-12-18T00:53:41;22.57;;;11.42;;
60336;SDS011;46978;50.288;28.624;2022-12-18T00:54:43;20.13;;;12.02;;
60336;SDS011;46978;50.288;28.624;2022-12-18T00:55:45;20.97;;;11.26;;
60336;SDS011;46978;50.288;28.624;2022-12-18T00:56:47;22.43;;;12.15;;
60336;SDS011;46978;50.288;28.624;2022-12-18T00:57:50;20.86;;;11.44;;
60336;SDS011;46978;50.288;28.624;2022-12-18T00:58:52;19.43;;;10.98;;
60336;SDS011;46978;50.288;28.624;2022-12-18T00:59:54;19.41;;;10.77;;
60336;SDS011;46978;50.288;28.624;2022-12-18T01:00:56;19.06;;;11.37;;
60336;SDS011;46978;50.288;28.624;2022-12-18T01:01:58;19.13;;;11.34;;
60336;SDS011;46978;50.288;28.624;2022-12-18T01:03:00;17.27;;;10.38;;
60336;SDS011;46978;50.288;28.624;2022-12-18T01:04:01;20.11;;;11.08;;
60336;SDS011;46978;50.288;28.624;2022-12-18T01:05:04;18.79;;;10.67;;
60336;SDS011;46978;50.288;28.624;2022-12-18T01:06:09;16.77;;;9.44;;
60336;SDS011;46978;50.288;28.624;2022-12-18T01:07:12;18.52;;;10.21;;
60336;SDS011;46978;50.288;28.624;2022-12-18T01:08:13;18.54;;;10.12;;
60336;SDS011;46978;50.288;28.624;2022-12-18T01:09:15;18.31;;;10.42;;
60336;SDS011;46978;50.288;28.624;2022-12-18T01:10:17;19.42;;;9.91;;
60336;SDS011;46978;50.288;28.624;2022-12-18T01:11:20;15.81;;;9.01;;
60336;SDS011;46978;50.288;28.624;2022-12-18T01:12:22;18.74;;;9.91;;
60336;SDS011;46978;50.288;28.624;2022-12-18T01:13:24;18.53;;;9.88;;
60336;SDS011;46978;50.288;28.624;2022-12-18T01:14:25;18.91;;;10.86;;
60336;SDS011;46978;50.288;28.624;2022-12-18T01:15:27;16.99;;;9.45;;
60336;SDS011;46978;50.288;28.624;2022-12-18T01:16:29;19.76;;;10.63;;
60336;SDS011;46978;50.288;28.624;2022-12-18T01:17:30;16.66;;;8.98;;
60336;SDS011;46978;50.288;28.624;2022-12-18T01:18:32;19.24;;;10.46;;
60336;SDS011;46978;50.288;28.624;2022-12-18T01:19:34;17.40;;;10.01;;
60336;SDS011;46978;50.288;28.624;2022-12-18T01:20:36;16.56;;;9.13;;
60336;SDS011;46978;50.288;28.624;2022-12-18T01:21:39;17.76;;;9.88;;
60336;SDS011;46978;50.288;28.624;2022-12-18T01:22:40;16.88;;;10.31;;
60336;SDS011;46978;50.288;28.624;2022-12-18T01:23:42;17.02;;;9.84;;
60336;SDS011;46978;50.288;28.624;2022-12-18T01:24:44;18.89;;;10.37;;
60336;SDS011;46978;50.288;28.624;2022-12-18T01:25:46;17.43;;;9.63;;
60336;SDS011;46978;50.288;28.624;2022-12-18T01:26:48;17.05;;;9.30;;
60336;SDS011;46978;50.288;28.624;2022-12-18T01:27:49;16.50;;;9.75;;
60336;SDS011;46978;50.288;28.624;2022-12-18T01:28:51;17.76;;;10.36;;
60336;SDS011;46978;50.288;28.624;2022-12-18T01:29:55;15.98;;;9.93;;
60336;SDS011;46978;50.288;28.624;2022-12-18T01:30:57;15.92;;;9.73;;
60336;SDS011;46978;50.288;28.624;2022-12-18T01:31:58;19.99;;;10.94;;
60336;SDS011;46978;50.288;28.624;2022-12-18T01:33:00;18.96;;;10.00;;
60336;SDS011;46978;50.288;28.624;2022-12-18T01:34:03;17.20;;;9.79;;
60336;SDS011;46978;50.288;28.624;2022-12-18T01:35:06;17.61;;;10.11;;
60336;SDS011;46978;50.288;28.624;2022-12-18T01:36:14;17.81;;;9.45;;
60336;SDS011;46978;50.288;28.624;2022-12-18T01:37:17;17.13;;;9.52;;
60336;SDS011;46978;50.288;28.624;2022-12-18T01:38:19;17.72;;;10.19;;
60336;SDS011;46978;50.288;28.624;2022-12-18T01:39:21;18.16;;;10.01;;
60336;SDS011;46978;50.288;28.624;2022-12-18T01:40:23;17.03;;;9.60;;
60336;SDS011;46978;50.288;28.624;2022-12-18T01:41:26;18.81;;;9.77;;
60336;SDS011;46978;50.288;28.624;2022-12-18T01:42:29;16.72;;;9.43;;
60336;SDS011;46978;50.288;28.624;2022-12-18T01:43:41;17.76;;;9.68;;
60336;SDS011;46978;50.288;28.624;2022-12-18T01:44:55;18.37;;;9.86;;
60336;SDS011;46978;50.288;28.624;2022-12-18T01:46:01;16.26;;;9.26;;
60336;SDS011;46978;50.288;28.624;2022-12-18T01:47:03;16.59;;;9.40;;
60336;SDS011;46978;50.288;28.624;2022-12-18T01:48:06;17.31;;;9.29;;
60336;SDS011;46978;50.288;28.624;2022-12-18T01:49:09;18.34;;;9.82;;
60336;SDS011;46978;50.288;28.624;2022-12-18T01:50:16;19.25;;;10.51;;
60336;SDS011;46978;50.288;28.624;2022-12-18T01:51:20;19.10;;;10.64;;
60336;SDS011;46978;50.288;28.624;2022-12-18T01:52:22;15.81;;;9.08;;
60336;SDS011;46978;50.288;28.624;2022-12-18T01:53:27;18.37;;;10.30;;
60336;SDS011;46978;50.288;28.624;2022-12-18T01:54:29;16.29;;;9.29;;
60336;SDS011;46978;50.288;28.624;2022-12-18T01:55:32;16.37;;;9.15;;
60336;SDS011;46978;50.288;28.624;2022-12-18T01:56:45;17.64;;;9.26;;
60336;SDS011;46978;50.288;28.624;2022-12-18T01:57:47;17.47;;;9.69;;
60336;SDS011;46978;50.288;28.624;2022-12-18T01:59:01;16.26;;;9.46;;
60336;SDS011;46978;50.288;28.624;2022-12-18T02:00:08;18.78;;;10.49;;
60336;SDS011;46978;50.288;28.624;2022-12-18T02:01:15;16.32;;;9.18;;
60336;SDS011;46978;50.288;28.624;2022-12-18T02:02:17;17.95;;;10.93;;
60336;SDS011;46978;50.288;28.624;2022-12-18T02:03:20;20.09;;;11.04;;
60336;SDS011;46978;50.288;28.624;2022-12-18T02:04:23;16.27;;;9.47;;
60336;SDS011;46978;50.288;28.624;2022-12-18T02:06:33;17.98;;;10.42;;
60336;SDS011;46978;50.288;28.624;2022-12-18T02:09:07;16.60;;;9.02;;
60336;SDS011;46978;50.288;28.624;2022-12-18T02:11:37;16.09;;;9.43;;
60336;SDS011;46978;50.288;28.624;2022-12-18T02:12:48;18.73;;;10.26;;
60336;SDS011;46978;50.288;28.624;2022-12-18T02:14:11;18.77;;;10.28;;
60336;SDS011;46978;50.288;28.624;2022-12-18T02:15:34;18.68;;;9.69;;
60336;SDS011;46978;50.288;28.624;2022-12-18T02:17:41;18.77;;;10.23;;
60336;SDS011;46978;50.288;28.624;2022-12-18T02:18:18;17.79;;;10.28;;
60336;SDS011;46978;50.288;28.624;2022-12-18T02:26:36;19.14;;;10.88;;
60336;SDS011;46978;50.288;28.624;2022-12-18T02:27:41;21.78;;;11.76;;
60336;SDS011;46978;50.288;28.624;2022-12-18T02:28:47;20.61;;;11.15;;
60336;SDS011;46978;50.288;28.624;2022-12-18T02:29:51;16.62;;;9.68;;
60336;SDS011;46978;50.288;28.624;2022-12-18T02:30:57;18.63;;;10.78;;
60336;SDS011;46978;50.288;28.624;2022-12-18T02:32:02;19.62;;;11.01;;
60336;SDS011;46978;50.288;28.624;2022-12-18T02:33:07;20.12;;;10.82;;
60336;SDS011;46978;50.288;28.624;2022-12-18T02:34:12;19.42;;;11.15;;
60336;SDS011;46978;50.288;28.624;2022-12-18T02:35:23;20.15;;;11.41;;
60336;SDS011;46978;50.288;28.624;2022-12-18T02:36:27;21.93;;;11.34;;
60336;SDS011;46978;50.288;28.624;2022-12-18T02:37:31;19.96;;;11.23;;
60336;SDS011;46978;50.288;28.624;2022-12-18T02:38:35;20.41;;;11.02;;
60336;SDS011;46978;50.288;28.624;2022-12-18T02:39:38;17.15;;;9.22;;
60336;SDS011;46978;50.288;28.624;2022-12-18T02:40:43;20.81;;;11.28;;
60336;SDS011;46978;50.288;28.624;2022-12-18T02:41:47;19.67;;;11.44;;
60336;SDS011;46978;50.288;28.624;2022-12-18T02:42:50;19.58;;;11.13;;
60336;SDS011;46978;50.288;28.624;2022-12-18T02:43:58;16.68;;;10.16;;
60336;SDS011;46978;50.288;28.624;2022-12-18T02:45:02;20.99;;;11.40;;
60336;SDS011;46978;50.288;28.624;2022-12-18T02:47:31;18.67;;;10.25;;
60336;SDS011;46978;50.288;28.624;2022-12-18T02:48:36;19.96;;;10.87;;
60336;SDS011;46978;50.288;28.624;2022-12-18T02:50:50;19.64;;;10.55;;
60336;SDS011;46978;50.288;28.624;2022-12-18T02:51:55;16.75;;;9.01;;
60336;SDS011;46978;50.288;28.624;2022-12-18T02:53:24;20.66;;;10.39;;
60336;SDS011;46978;50.288;28.624;2022-12-18T02:57:30;18.27;;;10.03;;
60336;SDS011;46978;50.288;28.624;2022-12-18T02:59:33;19.53;;;10.63;;
60336;SDS011;46978;50.288;28.624;2022-12-18T03:05:20;18.08;;;10.02;;
60336;SDS011;46978;50.288;28.624;2022-12-18T03:06:37;18.83;;;10.32;;
60336;SDS011;46978;50.288;28.624;2022-12-18T03:07:49;20.01;;;10.09;;
60336;SDS011;46978;50.288;28.624;2022-12-18T03:08:59;18.00;;;10.18;;
60336;SDS011;46978;50.288;28.624;2022-12-18T03:10:03;17.67;;;9.93;;
60336;SDS011;46978;50.288;28.624;2022-12-18T03:11:10;18.52;;;10.04;;
60336;SDS011;46978;50.288;28.624;2022-12-18T03:12:15;17.48;;;10.37;;
60336;SDS011;46978;50.288;28.624;2022-12-18T03:13:20;19.61;;;10.54;;
60336;SDS011;46978;50.288;28.624;2022-12-18T03:14:30;18.39;;;10.75;;
60336;SDS011;46978;50.288;28.624;2022-12-18T03:15:36;17.09;;;10.41;;
60336;SDS011;46978;50.288;28.624;2022-12-18T03:16:41;16.12;;;9.84;;
60336;SDS011;46978;50.288;28.624;2022-12-18T03:17:46;19.02;;;10.32;;
60336;SDS011;46978;50.288;28.624;2022-12-18T03:18:51;17.19;;;9.57;;
60336;SDS011;46978;50.288;28.624;2022-12-18T03:19:56;18.69;;;9.56;;
60336;SDS011;46978;50.288;28.624;2022-12-18T03:21:02;18.34;;;9.84;;
60336;SDS011;46978;50.288;28.624;2022-12-18T03:22:07;16.16;;;9.15;;
60336;SDS011;46978;50.288;28.624;2022-12-18T03:23:10;18.51;;;9.22;;
60336;SDS011;46978;50.288;28.624;2022-12-18T03:24:17;18.24;;;10.02;;
60336;SDS011;46978;50.288;28.624;2022-12-18T03:25:20;16.68;;;9.66;;
60336;SDS011;46978;50.288;28.624;2022-12-18T03:26:24;16.62;;;9.16;;
60336;SDS011;46978;50.288;28.624;2022-12-18T03:27:29;18.50;;;10.14;;
60336;SDS011;46978;50.288;28.624;2022-12-18T03:28:34;16.73;;;10.18;;
60336;SDS011;46978;50.288;28.624;2022-12-18T03:29:40;17.06;;;9.09;;
60336;SDS011;46978;50.288;28.624;2022-12-18T03:30:47;16.41;;;9.42;;
60336;SDS011;46978;50.288;28.624;2022-12-18T03:31:56;16.71;;;9.34;;
60336;SDS011;46978;50.288;28.624;2022-12-18T03:34:29;16.84;;;8.93;;
60336;SDS011;46978;50.288;28.624;2022-12-18T03:35:34;15.78;;;9.09;;
60336;SDS011;46978;50.288;28.624;2022-12-18T03:36:39;16.82;;;9.34;;
60336;SDS011;46978;50.288;28.624;2022-12-18T03:37:41;16.47;;;8.45;;
60336;SDS011;46978;50.288;28.624;2022-12-18T03:38:43;15.97;;;9.26;;
60336;SDS011;46978;50.288;28.624;2022-12-18T03:39:44;17.49;;;9.39;;
60336;SDS011;46978;50.288;28.624;2022-12-18T03:40:59;19.29;;;9.84;;
60336;SDS011;46978;50.288;28.624;2022-12-18T03:43:28;17.47;;;8.65;;
60336;SDS011;46978;50.288;28.624;2022-12-18T03:45:36;16.88;;;9.04;;
60336;SDS011;46978;50.288;28.624;2022-12-18T03:46:49;18.57;;;9.96;;
60336;SDS011;46978;50.288;28.624;2022-12-18T03:48:29;18.22;;;9.54;;
60336;SDS011;46978;50.288;28.624;2022-12-18T03:49:11;18.71;;;9.95;;
60336;SDS011;46978;50.288;28.624;2022-12-18T03:50:20;19.33;;;10.18;;
60336;SDS011;46978;50.288;28.624;2022-12-18T03:51:25;18.41;;;9.76;;
60336;SDS011;46978;50.288;28.624;2022-12-18T03:54:57;19.16;;;9.33;;
60336;SDS011;46978;50.288;28.624;2022-12-18T03:56:01;16.99;;;9.82;;
60336;SDS011;46978;50.288;28.624;2022-12-18T03:57:25;17.15;;;9.23;;
60336;SDS011;46978;50.288;28.624;2022-12-18T03:58:18;21.06;;;9.79;;
60336;SDS011;46978;50.288;28.624;2022-12-18T03:59:22;18.52;;;8.97;;
60336;SDS011;46978;50.288;28.624;2022-12-18T04:00:26;18.22;;;9.88;;
60336;SDS011;46978;50.288;28.624;2022-12-18T04:01:34;17.39;;;9.53;;
60336;SDS011;46978;50.288;28.624;2022-12-18T04:02:39;19.06;;;9.83;;
60336;SDS011;46978;50.288;28.624;2022-12-18T04:03:44;18.42;;;10.17;;
60336;SDS011;46978;50.288;28.624;2022-12-18T04:04:50;18.85;;;10.13;;
60336;SDS011;46978;50.288;28.624;2022-12-18T04:05:54;17.31;;;8.89;;
60336;SDS011;46978;50.288;28.624;2022-12-18T04:06:58;19.83;;;10.26;;
60336;SDS011;46978;50.288;28.624;2022-12-18T04:08:01;17.61;;;9.42;;
60336;SDS011;46978;50.288;28.624;2022-12-18T04:09:03;19.27;;;9.69;;
60336;SDS011;46978;50.288;28.624;2022-12-18T04:10:07;19.14;;;9.61;;
60336;SDS011;46978;50.288;28.624;2022-12-18T04:11:11;16.82;;;9.04;;
60336;SDS011;46978;50.288;28.624;2022-12-18T04:12:12;16.44;;;9.29;;
60336;SDS011;46978;50.288;28.624;2022-12-18T04:13:21;19.37;;;9.35;;
60336;SDS011;46978;50.288;28.624;2022-12-18T04:14:25;16.59;;;8.72;;
60336;SDS011;46978;50.288;28.624;2022-12-18T04:15:27;16.28;;;9.16;;
60336;SDS011;46978;50.288;28.624;2022-12-18T04:16:29;17.27;;;9.59;;
60336;SDS011;46978;50.288;28.624;2022-12-18T04:17:31;17.61;;;9.04;;
60336;SDS011;46978;50.288;28.624;2022-12-18T04:18:32;17.71;;;8.99;;
60336;SDS011;46978;50.288;28.624;2022-12-18T04:19:34;19.16;;;9.96;;
60336;SDS011;46978;50.288;28.624;2022-12-18T04:20:36;15.83;;;8.35;;
60336;SDS011;46978;50.288;28.624;2022-12-18T04:21:38;17.29;;;9.69;;
60336;SDS011;46978;50.288;28.624;2022-12-18T04:22:40;14.80;;;8.25;;
60336;SDS011;46978;50.288;28.624;2022-12-18T04:23:41;15.24;;;8.68;;
60336;SDS011;46978;50.288;28.624;2022-12-18T04:24:43;18.43;;;9.34;;
60336;SDS011;46978;50.288;28.624;2022-12-18T04:25:45;15.46;;;8.66;;
60336;SDS011;46978;50.288;28.624;2022-12-18T04:26:48;17.31;;;9.28;;
60336;SDS011;46978;50.288;28.624;2022-12-18T04:27:50;16.05;;;8.28;;
60336;SDS011;46978;50.288;28.624;2022-12-18T04:28:51;16.26;;;8.59;;
60336;SDS011;46978;50.288;28.624;2022-12-18T04:29:53;16.68;;;8.85;;
60336;SDS011;46978;50.288;28.624;2022-12-18T04:30:55;15.18;;;8.91;;
60336;SDS011;46978;50.288;28.624;2022-12-18T04:31:56;15.65;;;8.68;;
60336;SDS011;46978;50.288;28.624;2022-12-18T04:32:58;17.96;;;9.11;;
60336;SDS011;46978;50.288;28.624;2022-12-18T04:34:00;15.39;;;8.27;;
60336;SDS011;46978;50.288;28.624;2022-12-18T04:35:02;17.39;;;9.30;;
60336;SDS011;46978;50.288;28.624;2022-12-18T04:36:05;15.08;;;8.61;;
60336;SDS011;46978;50.288;28.624;2022-12-18T04:37:08;16.94;;;8.96;;
60336;SDS011;46978;50.288;28.624;2022-12-18T04:38:09;15.37;;;8.32;;
60336;SDS011;46978;50.288;28.624;2022-12-18T04:39:11;14.87;;;8.68;;
60336;SDS011;46978;50.288;28.624;2022-12-18T04:40:14;15.25;;;8.83;;
60336;SDS011;46978;50.288;28.624;2022-12-18T04:41:16;15.55;;;8.69;;
60336;SDS011;46978;50.288;28.624;2022-12-18T04:42:17;15.86;;;8.19;;
60336;SDS011;46978;50.288;28.624;2022-12-18T04:43:19;15.12;;;8.70;;
60336;SDS011;46978;50.288;28.624;2022-12-18T04:44:21;17.13;;;9.17;;
60336;SDS011;46978;50.288;28.624;2022-12-18T04:45:22;15.38;;;8.75;;
60336;SDS011;46978;50.288;28.624;2022-12-18T04:46:24;15.77;;;8.64;;
60336;SDS011;46978;50.288;28.624;2022-12-18T04:47:26;15.13;;;8.39;;
60336;SDS011;46978;50.288;28.624;2022-12-18T04:48:27;17.17;;;8.38;;
60336;SDS011;46978;50.288;28.624;2022-12-18T04:49:29;14.53;;;8.24;;
60336;SDS011;46978;50.288;28.624;2022-12-18T04:50:31;15.49;;;8.61;;
60336;SDS011;46978;50.288;28.624;2022-12-18T04:51:33;15.57;;;7.70;;
60336;SDS011;46978;50.288;28.624;2022-12-18T04:52:35;14.51;;;8.66;;
60336;SDS011;46978;50.288;28.624;2022-12-18T04:53:37;15.83;;;8.70;;
60336;SDS011;46978;50.288;28.624;2022-12-18T04:54:38;26.96;;;10.12;;
60336;SDS011;46978;50.288;28.624;2022-12-18T04:55:40;13.74;;;7.97;;
60336;SDS011;46978;50.288;28.624;2022-12-18T04:56:42;16.36;;;8.40;;
60336;SDS011;46978;50.288;28.624;2022-12-18T04:57:44;17.57;;;9.17;;
60336;SDS011;46978;50.288;28.624;2022-12-18T04:58:46;16.31;;;8.92;;
60336;SDS011;46978;50.288;28.624;2022-12-18T04:59:48;15.42;;;8.96;;
60336;SDS011;46978;50.288;28.624;2022-12-18T05:00:50;15.27;;;8.44;;
60336;SDS011;46978;50.288;28.624;2022-12-18T05:01:51;16.05;;;8.83;;
60336;SDS011;46978;50.288;28.624;2022-12-18T05:02:53;15.38;;;8.60;;
60336;SDS011;46978;50.288;28.624;2022-12-18T05:03:55;15.36;;;8.36;;
60336;SDS011;46978;50.288;28.624;2022-12-18T05:04:56;17.18;;;8.89;;
60336;SDS011;46978;50.288;28.624;2022-12-18T05:05:58;17.29;;;8.54;;
60336;SDS011;46978;50.288;28.624;2022-12-18T05:07:00;16.44;;;9.17;;
60336;SDS011;46978;50.288;28.624;2022-12-18T05:08:02;14.80;;;7.80;;
60336;SDS011;46978;50.288;28.624;2022-12-18T05:09:04;18.36;;;9.06;;
60336;SDS011;46978;50.288;28.624;2022-12-18T05:10:07;16.76;;;8.31;;
60336;SDS011;46978;50.288;28.624;2022-12-18T05:11:14;17.57;;;8.84;;
60336;SDS011;46978;50.288;28.624;2022-12-18T05:12:16;18.74;;;9.60;;
60336;SDS011;46978;50.288;28.624;2022-12-18T05:13:18;25.21;;;12.32;;
60336;SDS011;46978;50.288;28.624;2022-12-18T05:14:19;30.80;;;14.86;;
60336;SDS011;46978;50.288;28.624;2022-12-18T05:15:21;19.41;;;10.09;;
60336;SDS011;46978;50.288;28.624;2022-12-18T05:16:23;19.52;;;9.22;;
60336;SDS011;46978;50.288;28.624;2022-12-18T05:17:24;15.42;;;8.88;;
60336;SDS011;46978;50.288;28.624;2022-12-18T05:18:26;16.44;;;9.56;;
60336;SDS011;46978;50.288;28.624;2022-12-18T05:19:28;17.02;;;9.49;;
60336;SDS011;46978;50.288;28.624;2022-12-18T05:20:30;17.15;;;8.77;;
60336;SDS011;46978;50.288;28.624;2022-12-18T05:21:32;15.72;;;9.02;;
60336;SDS011;46978;50.288;28.624;2022-12-18T05:22:34;17.51;;;9.28;;
60336;SDS011;46978;50.288;28.624;2022-12-18T05:23:36;15.58;;;8.73;;
60336;SDS011;46978;50.288;28.624;2022-12-18T05:24:37;14.94;;;7.93;;
60336;SDS011;46978;50.288;28.624;2022-12-18T05:25:39;16.19;;;9.09;;
60336;SDS011;46978;50.288;28.624;2022-12-18T05:26:41;16.90;;;8.96;;
60336;SDS011;46978;50.288;28.624;2022-12-18T05:27:42;16.74;;;8.52;;
60336;SDS011;46978;50.288;28.624;2022-12-18T05:28:44;16.36;;;8.99;;
60336;SDS011;46978;50.288;28.624;2022-12-18T05:29:47;16.67;;;8.93;;
60336;SDS011;46978;50.288;28.624;2022-12-18T05:30:49;18.26;;;9.59;;
60336;SDS011;46978;50.288;28.624;2022-12-18T05:31:51;17.11;;;9.18;;
60336;SDS011;46978;50.288;28.624;2022-12-18T05:32:53;19.82;;;9.98;;
60336;SDS011;46978;50.288;28.624;2022-12-18T05:33:54;15.71;;;9.06;;
60336;SDS011;46978;50.288;28.624;2022-12-18T05:34:56;17.85;;;9.21;;
60336;SDS011;46978;50.288;28.624;2022-12-18T05:35:58;15.51;;;8.91;;
60336;SDS011;46978;50.288;28.624;2022-12-18T05:37:02;17.55;;;9.69;;
60336;SDS011;46978;50.288;28.624;2022-12-18T05:38:03;18.02;;;9.54;;
60336;SDS011;46978;50.288;28.624;2022-12-18T05:39:05;16.81;;;9.61;;
60336;SDS011;46978;50.288;28.624;2022-12-18T05:40:08;18.97;;;10.72;;
60336;SDS011;46978;50.288;28.624;2022-12-18T05:41:10;18.99;;;10.28;;
60336;SDS011;46978;50.288;28.624;2022-12-18T05:42:12;20.43;;;10.83;;
60336;SDS011;46978;50.288;28.624;2022-12-18T05:43:14;17.94;;;10.21;;
60336;SDS011;46978;50.288;28.624;2022-12-18T05:44:16;16.79;;;8.57;;
60336;SDS011;46978;50.288;28.624;2022-12-18T05:45:18;19.24;;;9.64;;
60336;SDS011;46978;50.288;28.624;2022-12-18T05:46:20;20.13;;;9.92;;
60336;SDS011;46978;50.288;28.624;2022-12-18T05:47:21;16.57;;;9.09;;
60336;SDS011;46978;50.288;28.624;2022-12-18T05:48:23;17.87;;;9.94;;
60336;SDS011;46978;50.288;28.624;2022-12-18T05:49:25;18.71;;;9.13;;
60336;SDS011;46978;50.288;28.624;2022-12-18T05:50:27;19.27;;;9.72;;
60336;SDS011;46978;50.288;28.624;2022-12-18T05:51:29;15.79;;;8.89;;
60336;SDS011;46978;50.288;28.624;2022-12-18T05:52:30;15.24;;;9.12;;
60336;SDS011;46978;50.288;28.624;2022-12-18T05:53:32;16.77;;;9.34;;
60336;SDS011;46978;50.288;28.624;2022-12-18T05:54:34;16.55;;;9.29;;
60336;SDS011;46978;50.288;28.624;2022-12-18T05:55:36;19.58;;;10.75;;
60336;SDS011;46978;50.288;28.624;2022-12-18T05:56:40;18.64;;;9.72;;
60336;SDS011;46978;50.288;28.624;2022-12-18T05:57:42;16.65;;;9.12;;
60336;SDS011;46978;50.288;28.624;2022-12-18T05:58:43;18.74;;;9.93;;
60336;SDS011;46978;50.288;28.624;2022-12-18T05:59:45;17.83;;;10.01;;
60336;SDS011;46978;50.288;28.624;2022-12-18T06:00:47;20.28;;;10.53;;
60336;SDS011;46978;50.288;28.624;2022-12-18T06:01:49;17.78;;;9.39;;
60336;SDS011;46978;50.288;28.624;2022-12-18T06:02:51;17.86;;;9.81;;
60336;SDS011;46978;50.288;28.624;2022-12-18T06:03:53;18.71;;;10.12;;
60336;SDS011;46978;50.288;28.624;2022-12-18T06:04:56;17.09;;;8.96;;
60336;SDS011;46978;50.288;28.624;2022-12-18T06:05:57;18.09;;;10.09;;
60336;SDS011;46978;50.288;28.624;2022-12-18T06:06:59;19.91;;;10.43;;
60336;SDS011;46978;50.288;28.624;2022-12-18T06:08:01;16.74;;;9.68;;
60336;SDS011;46978;50.288;28.624;2022-12-18T06:09:03;17.45;;;9.26;;
60336;SDS011;46978;50.288;28.624;2022-12-18T06:10:05;19.90;;;9.99;;
60336;SDS011;46978;50.288;28.624;2022-12-18T06:11:07;17.01;;;9.65;;
60336;SDS011;46978;50.288;28.624;2022-12-18T06:12:09;16.26;;;9.44;;
60336;SDS011;46978;50.288;28.624;2022-12-18T06:13:11;16.72;;;10.20;;
60336;SDS011;46978;50.288;28.624;2022-12-18T06:14:12;17.80;;;9.80;;
60336;SDS011;46978;50.288;28.624;2022-12-18T06:15:14;19.73;;;9.70;;
60336;SDS011;46978;50.288;28.624;2022-12-18T06:16:16;18.40;;;9.97;;
60336;SDS011;46978;50.288;28.624;2022-12-18T06:17:18;20.34;;;10.79;;
60336;SDS011;46978;50.288;28.624;2022-12-18T06:18:19;17.72;;;9.29;;
60336;SDS011;46978;50.288;28.624;2022-12-18T06:19:21;19.43;;;9.87;;
60336;SDS011;46978;50.288;28.624;2022-12-18T06:20:23;20.85;;;10.11;;
60336;SDS011;46978;50.288;28.624;2022-12-18T06:21:25;17.19;;;9.73;;
60336;SDS011;46978;50.288;28.624;2022-12-18T06:22:28;19.86;;;9.94;;
60336;SDS011;46978;50.288;28.624;2022-12-18T06:23:32;16.28;;;8.81;;
60336;SDS011;46978;50.288;28.624;2022-12-18T06:24:33;19.82;;;11.05;;
60336;SDS011;46978;50.288;28.624;2022-12-18T06:25:36;18.94;;;9.66;;
60336;SDS011;46978;50.288;28.624;2022-12-18T06:26:39;19.15;;;9.43;;
60336;SDS011;46978;50.288;28.624;2022-12-18T06:27:41;17.06;;;8.79;;
60336;SDS011;46978;50.288;28.624;2022-12-18T06:28:43;17.39;;;8.90;;
60336;SDS011;46978;50.288;28.624;2022-12-18T06:29:44;16.79;;;8.99;;
60336;SDS011;46978;50.288;28.624;2022-12-18T06:30:46;18.96;;;9.36;;
60336;SDS011;46978;50.288;28.624;2022-12-18T06:31:49;16.75;;;9.10;;
60336;SDS011;46978;50.288;28.624;2022-12-18T06:32:50;18.09;;;9.04;;
60336;SDS011;46978;50.288;28.624;2022-12-18T06:33:52;19.01;;;9.30;;
60336;SDS011;46978;50.288;28.624;2022-12-18T06:34:54;16.94;;;9.56;;
60336;SDS011;46978;50.288;28.624;2022-12-18T06:36:03;16.23;;;9.39;;
60336;SDS011;46978;50.288;28.624;2022-12-18T06:37:10;18.11;;;9.85;;
60336;SDS011;46978;50.288;28.624;2022-12-18T06:38:11;19.77;;;11.01;;